sensor_id;sensor_type;location;lat;lon;timestamp;P1;P2;P0
72023;PMS5003;59889;50.700;5.440;2022-10-16T00:00:35;3;3;
72023;PMS5003;59889;50.700;5.440;2022-10-16T00:03:00;3;3;
72023;PMS5003;59889;50.700;5.440;2022-10-16T00:05:25;2;2;
72023;PMS5003;59889;50.700;5.440;2022-10-16T00:07:50;3;3;
72023;PMS5003;59889;50.700;5.440;2022-10-16T00:10:15;4;3;
72023;PMS5003;59889;50.700;5.440;2022-10-16T00:12:40;3;3;
72023;PMS5003;59889;50.700;5.440;2022-10-16T00:15:05;3;3;
72023;PMS5003;59889;50.700;5.440;2022-10-16T00:17:30;3;3;
72023;PMS5003;59889;50.700;5.440;2022-10-16T00:19:55;2;2;
72023;PMS5003;59889;50.700;5.440;2022-10-16T00:22:20;3;3;
72023;PMS5003;59889;50.700;5.440;2022-10-16T00:24:45;4;3;
72023;PMS5003;59889;50.700;5.440;2022-10-16T00:27:10;3;3;
72023;PMS5003;59889;50.700;5.440;2022-10-16T00:29:35;3;3;
72023;PMS5003;59889;50.700;5.440;2022-10-16T00:32:01;3;3;
72023;PMS5003;59889;50.700;5.440;2022-10-16T00:34:26;3;3;
72023;PMS5003;59889;50.700;5.440;2022-10-16T00:36:51;2;2;
72023;PMS5003;59889;50.700;5.440;2022-10-16T00:39:16;2;2;
72023;PMS5003;59889;50.700;5.440;2022-10-16T00:41:41;2;2;
72023;PMS5003;59889;50.700;5.440;2022-10-16T00:46:33;3;2;
72023;PMS5003;59889;50.700;5.440;2022-10-16T00:48:57;2;2;
72023;PMS5003;59889;50.700;5.440;2022-10-16T00:51:21;3;3;
72023;PMS5003;59889;50.700;5.440;2022-10-16T00:53:46;2;2;
72023;PMS5003;59889;50.700;5.440;2022-10-16T00:56:11;2;1;
72023;PMS5003;59889;50.700;5.440;2022-10-16T00:58:36;2;2;
72023;PMS5003;59889;50.700;5.440;2022-10-16T01:01:01;2;2;
72023;PMS5003;59889;50.700;5.440;2022-10-16T01:03:27;1;1;
72023;PMS5003;59889;50.700;5.440;2022-10-16T01:05:54;3;3;
72023;PMS5003;59889;50.700;5.440;2022-10-16T01:08:18;3;2;
72023;PMS5003;59889;50.700;5.440;2022-10-16T01:10:43;1;1;
72023;PMS5003;59889;50.700;5.440;2022-10-16T01:13:07;2;2;
72023;PMS5003;59889;50.700;5.440;2022-10-16T01:15:32;1;1;
72023;PMS5003;59889;50.700;5.440;2022-10-16T01:17:57;2;2;
72023;PMS5003;59889;50.700;5.440;2022-10-16T01:20:24;1;1;
72023;PMS5003;59889;50.700;5.440;2022-10-16T01:22:56;3;3;
72023;PMS5003;59889;50.700;5.440;2022-10-16T01:25:15;3;3;
72023;PMS5003;59889;50.700;5.440;2022-10-16T01:27:37;2;2;
72023;PMS5003;59889;50.700;5.440;2022-10-16T01:30:04;2;2;
72023;PMS5003;59889;50.700;5.440;2022-10-16T01:32:28;2;2;
72023;PMS5003;59889;50.700;5.440;2022-10-16T01:34:52;3;2;
72023;PMS5003;59889;50.700;5.440;2022-10-16T01:37:20;2;2;
72023;PMS5003;59889;50.700;5.440;2022-10-16T01:39:42;2;2;
72023;PMS5003;59889;50.700;5.440;2022-10-16T01:42:08;2;2;
72023;PMS5003;59889;50.700;5.440;2022-10-16T01:44:32;3;3;
72023;PMS5003;59889;50.700;5.440;2022-10-16T01:46:57;3;2;
72023;PMS5003;59889;50.700;5.440;2022-10-16T01:49:23;2;2;
72023;PMS5003;59889;50.700;5.440;2022-10-16T01:51:48;1;1;
72023;PMS5003;59889;50.700;5.440;2022-10-16T01:54:12;2;2;
72023;PMS5003;59889;50.700;5.440;2022-10-16T01:56:37;2;2;
72023;PMS5003;59889;50.700;5.440;2022-10-16T01:59:03;2;2;
72023;PMS5003;59889;50.700;5.440;2022-10-16T02:01:28;1;1;
72023;PMS5003;59889;50.700;5.440;2022-10-16T02:03:53;2;2;
72023;PMS5003;59889;50.700;5.440;2022-10-16T02:06:17;3;3;
72023;PMS5003;59889;50.700;5.440;2022-10-16T02:08:42;2;2;
72023;PMS5003;59889;50.700;5.440;2022-10-16T02:11:07;2;2;
72023;PMS5003;59889;50.700;5.440;2022-10-16T02:13:33;2;2;
72023;PMS5003;59889;50.700;5.440;2022-10-16T02:15:58;2;2;
72023;PMS5003;59889;50.700;5.440;2022-10-16T02:18:23;3;3;
72023;PMS5003;59889;50.700;5.440;2022-10-16T02:20:48;1;1;
72023;PMS5003;59889;50.700;5.440;2022-10-16T02:23:14;2;2;
72023;PMS5003;59889;50.700;5.440;2022-10-16T02:25:39;2;2;
72023;PMS5003;59889;50.700;5.440;2022-10-16T02:28:03;2;2;
72023;PMS5003;59889;50.700;5.440;2022-10-16T02:30:29;1;1;
72023;PMS5003;59889;50.700;5.440;2022-10-16T02:32:53;2;2;
72023;PMS5003;59889;50.700;5.440;2022-10-16T02:35:18;0;0;
72023;PMS5003;59889;50.700;5.440;2022-10-16T02:37:43;3;3;
72023;PMS5003;59889;50.700;5.440;2022-10-16T02:40:08;2;2;
72023;PMS5003;59889;50.700;5.440;2022-10-16T02:42:34;1;1;
72023;PMS5003;59889;50.700;5.440;2022-10-16T02:44:58;1;1;
72023;PMS5003;59889;50.700;5.440;2022-10-16T02:47:23;2;2;
72023;PMS5003;59889;50.700;5.440;2022-10-16T02:49:48;2;2;
72023;PMS5003;59889;50.700;5.440;2022-10-16T02:52:13;1;1;
72023;PMS5003;59889;50.700;5.440;2022-10-16T02:54:38;3;3;
72023;PMS5003;59889;50.700;5.440;2022-10-16T02:57:03;2;2;
72023;PMS5003;59889;50.700;5.440;2022-10-16T02:59:28;2;2;
72023;PMS5003;59889;50.700;5.440;2022-10-16T03:01:54;1;1;
72023;PMS5003;59889;50.700;5.440;2022-10-16T03:04:18;2;2;
72023;PMS5003;59889;50.700;5.440;2022-10-16T03:06:43;2;2;
72023;PMS5003;59889;50.700;5.440;2022-10-16T03:09:08;2;2;
72023;PMS5003;59889;50.700;5.440;2022-10-16T03:11:33;2;2;
72023;PMS5003;59889;50.700;5.440;2022-10-16T03:13:59;2;2;
72023;PMS5003;59889;50.700;5.440;2022-10-16T03:16:23;1;1;
72023;PMS5003;59889;50.700;5.440;2022-10-16T03:18:49;2;2;
72023;PMS5003;59889;50.700;5.440;2022-10-16T03:21:14;2;2;
72023;PMS5003;59889;50.700;5.440;2022-10-16T03:23:39;2;2;
72023;PMS5003;59889;50.700;5.440;2022-10-16T03:26:04;1;1;
72023;PMS5003;59889;50.700;5.440;2022-10-16T03:28:29;1;1;
72023;PMS5003;59889;50.700;5.440;2022-10-16T03:30:54;0;0;
72023;PMS5003;59889;50.700;5.440;2022-10-16T03:33:19;2;2;
72023;PMS5003;59889;50.700;5.440;2022-10-16T03:38:09;2;1;
72023;PMS5003;59889;50.700;5.440;2022-10-16T03:40:34;1;1;
72023;PMS5003;59889;50.700;5.440;2022-10-16T03:42:59;2;2;
72023;PMS5003;59889;50.700;5.440;2022-10-16T03:45:24;1;1;
72023;PMS5003;59889;50.700;5.440;2022-10-16T03:47:49;2;1;
72023;PMS5003;59889;50.700;5.440;2022-10-16T03:50:14;2;2;
72023;PMS5003;59889;50.700;5.440;2022-10-16T03:52:39;2;2;
72023;PMS5003;59889;50.700;5.440;2022-10-16T03:55:05;0;0;
72023;PMS5003;59889;50.700;5.440;2022-10-16T03:57:29;2;2;
72023;PMS5003;59889;50.700;5.440;2022-10-16T03:59:54;2;2;
72023;PMS5003;59889;50.700;5.440;2022-10-16T04:02:20;1;1;
72023;PMS5003;59889;50.700;5.440;2022-10-16T04:04:45;1;1;
72023;PMS5003;59889;50.700;5.440;2022-10-16T04:07:10;2;2;
72023;PMS5003;59889;50.700;5.440;2022-10-16T04:09:35;1;1;
72023;PMS5003;59889;50.700;5.440;2022-10-16T04:12:00;0;0;
72023;PMS5003;59889;50.700;5.440;2022-10-16T04:14:25;2;2;
72023;PMS5003;59889;50.700;5.440;2022-10-16T04:16:50;2;2;
72023;PMS5003;59889;50.700;5.440;2022-10-16T04:19:15;2;2;
72023;PMS5003;59889;50.700;5.440;2022-10-16T04:21:40;2;2;
72023;PMS5003;59889;50.700;5.440;2022-10-16T04:24:05;2;1;
72023;PMS5003;59889;50.700;5.440;2022-10-16T04:26:31;1;1;
72023;PMS5003;59889;50.700;5.440;2022-10-16T04:28:55;1;1;
72023;PMS5003;59889;50.700;5.440;2022-10-16T04:31:20;1;1;
72023;PMS5003;59889;50.700;5.440;2022-10-16T04:33:45;1;1;
72023;PMS5003;59889;50.700;5.440;2022-10-16T04:36:10;2;2;
72023;PMS5003;59889;50.700;5.440;2022-10-16T04:38:35;1;1;
72023;PMS5003;59889;50.700;5.440;2022-10-16T04:41:00;0;0;
72023;PMS5003;59889;50.700;5.440;2022-10-16T04:43:25;1;1;
72023;PMS5003;59889;50.700;5.440;2022-10-16T04:45:50;2;2;
72023;PMS5003;59889;50.700;5.440;2022-10-16T04:48:15;2;2;
72023;PMS5003;59889;50.700;5.440;2022-10-16T04:50:40;2;2;
72023;PMS5003;59889;50.700;5.440;2022-10-16T04:53:06;0;0;
72023;PMS5003;59889;50.700;5.440;2022-10-16T04:55:30;2;2;
72023;PMS5003;59889;50.700;5.440;2022-10-16T04:57:55;0;0;
72023;PMS5003;59889;50.700;5.440;2022-10-16T05:00:20;0;0;
72023;PMS5003;59889;50.700;5.440;2022-10-16T05:02:46;1;1;
72023;PMS5003;59889;50.700;5.440;2022-10-16T05:05:11;2;2;
72023;PMS5003;59889;50.700;5.440;2022-10-16T05:07:36;0;0;
72023;PMS5003;59889;50.700;5.440;2022-10-16T05:10:01;2;1;
72023;PMS5003;59889;50.700;5.440;2022-10-16T05:12:26;1;1;
72023;PMS5003;59889;50.700;5.440;2022-10-16T05:14:51;1;1;
72023;PMS5003;59889;50.700;5.440;2022-10-16T05:17:16;2;1;
72023;PMS5003;59889;50.700;5.440;2022-10-16T05:19:41;2;2;
72023;PMS5003;59889;50.700;5.440;2022-10-16T05:22:06;1;1;
72023;PMS5003;59889;50.700;5.440;2022-10-16T05:24:31;1;1;
72023;PMS5003;59889;50.700;5.440;2022-10-16T05:26:56;2;2;
72023;PMS5003;59889;50.700;5.440;2022-10-16T05:29:21;1;1;
72023;PMS5003;59889;50.700;5.440;2022-10-16T05:31:46;2;1;
72023;PMS5003;59889;50.700;5.440;2022-10-16T05:34:11;2;2;
72023;PMS5003;59889;50.700;5.440;2022-10-16T05:36:36;2;2;
72023;PMS5003;59889;50.700;5.440;2022-10-16T05:39:01;1;1;
72023;PMS5003;59889;50.700;5.440;2022-10-16T05:41:26;1;1;
72023;PMS5003;59889;50.700;5.440;2022-10-16T05:43:51;1;1;
72023;PMS5003;59889;50.700;5.440;2022-10-16T05:46:16;2;2;
72023;PMS5003;59889;50.700;5.440;2022-10-16T05:48:41;1;1;
72023;PMS5003;59889;50.700;5.440;2022-10-16T05:51:07;2;2;
72023;PMS5003;59889;50.700;5.440;2022-10-16T05:53:33;1;1;
72023;PMS5003;59889;50.700;5.440;2022-10-16T05:55:57;1;1;
72023;PMS5003;59889;50.700;5.440;2022-10-16T05:58:22;2;2;
72023;PMS5003;59889;50.700;5.440;2022-10-16T06:03:12;2;2;
72023;PMS5003;59889;50.700;5.440;2022-10-16T06:05:37;2;2;
72023;PMS5003;59889;50.700;5.440;2022-10-16T06:08:02;3;2;
72023;PMS5003;59889;50.700;5.440;2022-10-16T06:10:27;2;2;
72023;PMS5003;59889;50.700;5.440;2022-10-16T06:12:52;2;2;
72023;PMS5003;59889;50.700;5.440;2022-10-16T06:15:17;3;3;
72023;PMS5003;59889;50.700;5.440;2022-10-16T06:17:42;3;2;
72023;PMS5003;59889;50.700;5.440;2022-10-16T06:20:07;2;2;
72023;PMS5003;59889;50.700;5.440;2022-10-16T06:22:32;4;3;
72023;PMS5003;59889;50.700;5.440;2022-10-16T06:24:57;2;2;
72023;PMS5003;59889;50.700;5.440;2022-10-16T06:27:23;2;2;
72023;PMS5003;59889;50.700;5.440;2022-10-16T06:29:47;2;2;
72023;PMS5003;59889;50.700;5.440;2022-10-16T06:32:12;3;3;
72023;PMS5003;59889;50.700;5.440;2022-10-16T06:34:37;4;4;
72023;PMS5003;59889;50.700;5.440;2022-10-16T06:37:02;2;1;
72023;PMS5003;59889;50.700;5.440;2022-10-16T06:39:27;1;1;
72023;PMS5003;59889;50.700;5.440;2022-10-16T06:41:52;2;2;
72023;PMS5003;59889;50.700;5.440;2022-10-16T06:44:18;1;1;
72023;PMS5003;59889;50.700;5.440;2022-10-16T06:46:42;3;3;
72023;PMS5003;59889;50.700;5.440;2022-10-16T06:49:08;2;2;
72023;PMS5003;59889;50.700;5.440;2022-10-16T06:51:33;4;4;
72023;PMS5003;59889;50.700;5.440;2022-10-16T06:53:58;2;2;
72023;PMS5003;59889;50.700;5.440;2022-10-16T06:56:24;2;2;
72023;PMS5003;59889;50.700;5.440;2022-10-16T06:58:48;3;3;
72023;PMS5003;59889;50.700;5.440;2022-10-16T07:01:13;2;2;
72023;PMS5003;59889;50.700;5.440;2022-10-16T07:03:38;2;2;
72023;PMS5003;59889;50.700;5.440;2022-10-16T07:06:04;3;3;
72023;PMS5003;59889;50.700;5.440;2022-10-16T07:08:30;3;3;
72023;PMS5003;59889;50.700;5.440;2022-10-16T07:10:58;2;2;
72023;PMS5003;59889;50.700;5.440;2022-10-16T07:13:20;3;3;
72023;PMS5003;59889;50.700;5.440;2022-10-16T07:15:44;4;4;
72023;PMS5003;59889;50.700;5.440;2022-10-16T07:18:09;4;3;
72023;PMS5003;59889;50.700;5.440;2022-10-16T07:20:34;9;8;
72023;PMS5003;59889;50.700;5.440;2022-10-16T07:22:59;8;8;
72023;PMS5003;59889;50.700;5.440;2022-10-16T07:25:24;10;10;
72023;PMS5003;59889;50.700;5.440;2022-10-16T07:27:49;12;12;
72023;PMS5003;59889;50.700;5.440;2022-10-16T07:30:14;14;14;
72023;PMS5003;59889;50.700;5.440;2022-10-16T07:32:39;14;13;
72023;PMS5003;59889;50.700;5.440;2022-10-16T07:35:05;16;15;
72023;PMS5003;59889;50.700;5.440;2022-10-16T07:37:30;16;16;
72023;PMS5003;59889;50.700;5.440;2022-10-16T07:39:55;16;16;
72023;PMS5003;59889;50.700;5.440;2022-10-16T07:42:20;17;16;
72023;PMS5003;59889;50.700;5.440;2022-10-16T07:44:45;22;20;
72023;PMS5003;59889;50.700;5.440;2022-10-16T07:47:12;23;23;
72023;PMS5003;59889;50.700;5.440;2022-10-16T07:49:36;19;18;
72023;PMS5003;59889;50.700;5.440;2022-10-16T07:52:02;19;19;
72023;PMS5003;59889;50.700;5.440;2022-10-16T07:54:27;16;16;
72023;PMS5003;59889;50.700;5.440;2022-10-16T07:56:52;19;17;
72023;PMS5003;59889;50.700;5.440;2022-10-16T07:59:17;20;18;
72023;PMS5003;59889;50.700;5.440;2022-10-16T08:01:42;18;17;
72023;PMS5003;59889;50.700;5.440;2022-10-16T08:04:07;18;15;
72023;PMS5003;59889;50.700;5.440;2022-10-16T08:06:35;13;13;
72023;PMS5003;59889;50.700;5.440;2022-10-16T08:08:58;19;17;
72023;PMS5003;59889;50.700;5.440;2022-10-16T08:11:23;14;13;
72023;PMS5003;59889;50.700;5.440;2022-10-16T08:13:48;14;14;
72023;PMS5003;59889;50.700;5.440;2022-10-16T08:16:13;14;13;
72023;PMS5003;59889;50.700;5.440;2022-10-16T08:18:38;15;14;
72023;PMS5003;59889;50.700;5.440;2022-10-16T08:21:04;13;13;
72023;PMS5003;59889;50.700;5.440;2022-10-16T08:23:29;10;10;
72023;PMS5003;59889;50.700;5.440;2022-10-16T08:25:54;11;11;
72023;PMS5003;59889;50.700;5.440;2022-10-16T08:28:19;13;12;
72023;PMS5003;59889;50.700;5.440;2022-10-16T08:30:44;10;10;
72023;PMS5003;59889;50.700;5.440;2022-10-16T08:33:09;12;11;
72023;PMS5003;59889;50.700;5.440;2022-10-16T08:35:34;9;9;
72023;PMS5003;59889;50.700;5.440;2022-10-16T08:37:59;9;9;
72023;PMS5003;59889;50.700;5.440;2022-10-16T08:40:25;10;10;
72023;PMS5003;59889;50.700;5.440;2022-10-16T08:42:54;10;10;
72023;PMS5003;59889;50.700;5.440;2022-10-16T08:45:19;11;9;
72023;PMS5003;59889;50.700;5.440;2022-10-16T08:47:43;8;7;
72023;PMS5003;59889;50.700;5.440;2022-10-16T08:50:08;7;7;
72023;PMS5003;59889;50.700;5.440;2022-10-16T08:52:32;9;8;
72023;PMS5003;59889;50.700;5.440;2022-10-16T08:54:55;6;6;
72023;PMS5003;59889;50.700;5.440;2022-10-16T08:57:20;8;8;
72023;PMS5003;59889;50.700;5.440;2022-10-16T08:59:45;6;6;
72023;PMS5003;59889;50.700;5.440;2022-10-16T09:02:19;6;6;
72023;PMS5003;59889;50.700;5.440;2022-10-16T09:07:01;6;6;
72023;PMS5003;59889;50.700;5.440;2022-10-16T09:09:31;9;8;
72023;PMS5003;59889;50.700;5.440;2022-10-16T09:11:52;8;8;
72023;PMS5003;59889;50.700;5.440;2022-10-16T09:14:23;8;8;
72023;PMS5003;59889;50.700;5.440;2022-10-16T09:16:41;8;8;
72023;PMS5003;59889;50.700;5.440;2022-10-16T09:19:09;7;7;
72023;PMS5003;59889;50.700;5.440;2022-10-16T09:21:31;7;7;
72023;PMS5003;59889;50.700;5.440;2022-10-16T09:23:57;8;8;
72023;PMS5003;59889;50.700;5.440;2022-10-16T09:26:20;7;7;
72023;PMS5003;59889;50.700;5.440;2022-10-16T09:28:45;7;7;
72023;PMS5003;59889;50.700;5.440;2022-10-16T09:31:13;7;7;
72023;PMS5003;59889;50.700;5.440;2022-10-16T09:33:36;8;7;
72023;PMS5003;59889;50.700;5.440;2022-10-16T09:36:00;9;8;
72023;PMS5003;59889;50.700;5.440;2022-10-16T09:38:28;8;7;
72023;PMS5003;59889;50.700;5.440;2022-10-16T09:40:51;6;6;
72023;PMS5003;59889;50.700;5.440;2022-10-16T09:43:20;8;7;
72023;PMS5003;59889;50.700;5.440;2022-10-16T09:45:41;5;5;
72023;PMS5003;59889;50.700;5.440;2022-10-16T09:48:10;6;6;
72023;PMS5003;59889;50.700;5.440;2022-10-16T09:50:31;9;7;
72023;PMS5003;59889;50.700;5.440;2022-10-16T09:53:03;5;5;
72023;PMS5003;59889;50.700;5.440;2022-10-16T09:55:22;9;9;
72023;PMS5003;59889;50.700;5.440;2022-10-16T09:57:48;8;8;
72023;PMS5003;59889;50.700;5.440;2022-10-16T10:00:15;6;6;
72023;PMS5003;59889;50.700;5.440;2022-10-16T10:02:37;6;6;
72023;PMS5003;59889;50.700;5.440;2022-10-16T10:05:02;9;8;
72023;PMS5003;59889;50.700;5.440;2022-10-16T10:07:28;6;5;
72023;PMS5003;59889;50.700;5.440;2022-10-16T10:09:53;6;6;
72023;PMS5003;59889;50.700;5.440;2022-10-16T10:12:18;6;5;
72023;PMS5003;59889;50.700;5.440;2022-10-16T10:14:43;5;5;
72023;PMS5003;59889;50.700;5.440;2022-10-16T10:17:10;5;5;
72023;PMS5003;59889;50.700;5.440;2022-10-16T10:19:37;4;4;
72023;PMS5003;59889;50.700;5.440;2022-10-16T10:21:58;6;6;
72023;PMS5003;59889;50.700;5.440;2022-10-16T10:24:23;5;5;
72023;PMS5003;59889;50.700;5.440;2022-10-16T10:26:49;6;6;
72023;PMS5003;59889;50.700;5.440;2022-10-16T10:29:14;7;4;
72023;PMS5003;59889;50.700;5.440;2022-10-16T10:31:38;5;5;
72023;PMS5003;59889;50.700;5.440;2022-10-16T10:34:04;4;4;
72023;PMS5003;59889;50.700;5.440;2022-10-16T10:36:39;4;4;
72023;PMS5003;59889;50.700;5.440;2022-10-16T10:38:54;5;5;
72023;PMS5003;59889;50.700;5.440;2022-10-16T10:41:22;7;6;
72023;PMS5003;59889;50.700;5.440;2022-10-16T10:43:47;4;4;
72023;PMS5003;59889;50.700;5.440;2022-10-16T10:46:09;6;5;
72023;PMS5003;59889;50.700;5.440;2022-10-16T10:48:43;3;3;
72023;PMS5003;59889;50.700;5.440;2022-10-16T10:51:00;5;5;
72023;PMS5003;59889;50.700;5.440;2022-10-16T10:53:26;5;4;
72023;PMS5003;59889;50.700;5.440;2022-10-16T10:55:49;5;5;
72023;PMS5003;59889;50.700;5.440;2022-10-16T11:00:42;6;5;
72023;PMS5003;59889;50.700;5.440;2022-10-16T11:03:05;4;4;
72023;PMS5003;59889;50.700;5.440;2022-10-16T11:05:31;4;4;
72023;PMS5003;59889;50.700;5.440;2022-10-16T11:07:55;4;3;
72023;PMS5003;59889;50.700;5.440;2022-10-16T11:10:20;6;5;
72023;PMS5003;59889;50.700;5.440;2022-10-16T11:12:44;4;4;
72023;PMS5003;59889;50.700;5.440;2022-10-16T11:15:11;4;4;
72023;PMS5003;59889;50.700;5.440;2022-10-16T11:17:35;5;5;
72023;PMS5003;59889;50.700;5.440;2022-10-16T11:20:00;5;4;
72023;PMS5003;59889;50.700;5.440;2022-10-16T11:22:25;6;6;
72023;PMS5003;59889;50.700;5.440;2022-10-16T11:24:51;4;4;
72023;PMS5003;59889;50.700;5.440;2022-10-16T11:27:15;5;4;
72023;PMS5003;59889;50.700;5.440;2022-10-16T11:29:41;8;6;
72023;PMS5003;59889;50.700;5.440;2022-10-16T11:32:05;5;4;
72023;PMS5003;59889;50.700;5.440;2022-10-16T11:34:31;4;4;
72023;PMS5003;59889;50.700;5.440;2022-10-16T11:36:56;4;4;
72023;PMS5003;59889;50.700;5.440;2022-10-16T11:39:20;5;5;
72023;PMS5003;59889;50.700;5.440;2022-10-16T11:41:45;4;4;
72023;PMS5003;59889;50.700;5.440;2022-10-16T11:44:14;4;4;
72023;PMS5003;59889;50.700;5.440;2022-10-16T11:46:35;3;3;
72023;PMS5003;59889;50.700;5.440;2022-10-16T11:49:01;4;4;
72023;PMS5003;59889;50.700;5.440;2022-10-16T11:51:26;4;4;
72023;PMS5003;59889;50.700;5.440;2022-10-16T11:53:51;4;4;
72023;PMS5003;59889;50.700;5.440;2022-10-16T11:56:15;4;4;
72023;PMS5003;59889;50.700;5.440;2022-10-16T11:58:41;4;4;
72023;PMS5003;59889;50.700;5.440;2022-10-16T12:01:10;4;4;
72023;PMS5003;59889;50.700;5.440;2022-10-16T12:03:31;5;5;
72023;PMS5003;59889;50.700;5.440;2022-10-16T12:05:58;4;4;
72023;PMS5003;59889;50.700;5.440;2022-10-16T12:08:20;3;3;
72023;PMS5003;59889;50.700;5.440;2022-10-16T12:10:46;5;4;
72023;PMS5003;59889;50.700;5.440;2022-10-16T12:15:35;3;3;
72023;PMS5003;59889;50.700;5.440;2022-10-16T12:18:00;5;5;
72023;PMS5003;59889;50.700;5.440;2022-10-16T12:20:27;3;3;
72023;PMS5003;59889;50.700;5.440;2022-10-16T12:22:51;3;3;
72023;PMS5003;59889;50.700;5.440;2022-10-16T12:25:19;6;6;
72023;PMS5003;59889;50.700;5.440;2022-10-16T12:27:40;5;4;
72023;PMS5003;59889;50.700;5.440;2022-10-16T12:30:06;3;3;
72023;PMS5003;59889;50.700;5.440;2022-10-16T12:32:31;5;5;
72023;PMS5003;59889;50.700;5.440;2022-10-16T12:34:55;4;4;
72023;PMS5003;59889;50.700;5.440;2022-10-16T12:37:21;3;3;
72023;PMS5003;59889;50.700;5.440;2022-10-16T12:39:46;4;4;
72023;PMS5003;59889;50.700;5.440;2022-10-16T12:42:20;5;5;
72023;PMS5003;59889;50.700;5.440;2022-10-16T12:44:36;4;4;
72023;PMS5003;59889;50.700;5.440;2022-10-16T12:47:01;3;3;
72023;PMS5003;59889;50.700;5.440;2022-10-16T12:49:30;3;3;
72023;PMS5003;59889;50.700;5.440;2022-10-16T12:51:51;4;3;
72023;PMS5003;59889;50.700;5.440;2022-10-16T12:54:17;4;4;
72023;PMS5003;59889;50.700;5.440;2022-10-16T12:56:44;3;3;
72023;PMS5003;59889;50.700;5.440;2022-10-16T12:59:08;4;3;
72023;PMS5003;59889;50.700;5.440;2022-10-16T13:01:34;4;4;
72023;PMS5003;59889;50.700;5.440;2022-10-16T13:04:00;4;4;
72023;PMS5003;59889;50.700;5.440;2022-10-16T13:06:25;3;3;
72023;PMS5003;59889;50.700;5.440;2022-10-16T13:08:52;3;3;
72023;PMS5003;59889;50.700;5.440;2022-10-16T13:11:14;4;4;
72023;PMS5003;59889;50.700;5.440;2022-10-16T13:13:40;4;3;
72023;PMS5003;59889;50.700;5.440;2022-10-16T13:16:04;5;4;
72023;PMS5003;59889;50.700;5.440;2022-10-16T13:18:27;4;4;
72023;PMS5003;59889;50.700;5.440;2022-10-16T13:20:55;3;3;
72023;PMS5003;59889;50.700;5.440;2022-10-16T13:23:18;4;4;
72023;PMS5003;59889;50.700;5.440;2022-10-16T13:25:45;3;3;
72023;PMS5003;59889;50.700;5.440;2022-10-16T13:28:07;2;2;
72023;PMS5003;59889;50.700;5.440;2022-10-16T13:30:33;4;4;
72023;PMS5003;59889;50.700;5.440;2022-10-16T13:32:58;4;4;
72023;PMS5003;59889;50.700;5.440;2022-10-16T13:35:26;3;3;
72023;PMS5003;59889;50.700;5.440;2022-10-16T13:37:47;4;4;
72023;PMS5003;59889;50.700;5.440;2022-10-16T13:40:17;4;4;
72023;PMS5003;59889;50.700;5.440;2022-10-16T13:42:37;3;3;
72023;PMS5003;59889;50.700;5.440;2022-10-16T13:45:02;3;3;
72023;PMS5003;59889;50.700;5.440;2022-10-16T13:47:28;4;4;
72023;PMS5003;59889;50.700;5.440;2022-10-16T13:49:59;4;3;
72023;PMS5003;59889;50.700;5.440;2022-10-16T13:52:18;3;3;
72023;PMS5003;59889;50.700;5.440;2022-10-16T13:54:42;5;5;
72023;PMS5003;59889;50.700;5.440;2022-10-16T13:57:07;3;3;
72023;PMS5003;59889;50.700;5.440;2022-10-16T13:59:33;3;3;
72023;PMS5003;59889;50.700;5.440;2022-10-16T14:01:57;4;4;
72023;PMS5003;59889;50.700;5.440;2022-10-16T14:04:22;3;3;
72023;PMS5003;59889;50.700;5.440;2022-10-16T14:06:49;3;3;
72023;PMS5003;59889;50.700;5.440;2022-10-16T14:09:14;3;3;
72023;PMS5003;59889;50.700;5.440;2022-10-16T14:11:42;6;4;
72023;PMS5003;59889;50.700;5.440;2022-10-16T14:14:03;3;3;
72023;PMS5003;59889;50.700;5.440;2022-10-16T14:16:29;5;5;
72023;PMS5003;59889;50.700;5.440;2022-10-16T14:18:55;4;3;
72023;PMS5003;59889;50.700;5.440;2022-10-16T14:21:18;4;4;
72023;PMS5003;59889;50.700;5.440;2022-10-16T14:23:43;4;3;
72023;PMS5003;59889;50.700;5.440;2022-10-16T14:26:14;2;2;
72023;PMS5003;59889;50.700;5.440;2022-10-16T14:28:33;6;3;
72023;PMS5003;59889;50.700;5.440;2022-10-16T14:30:59;2;2;
72023;PMS5003;59889;50.700;5.440;2022-10-16T14:33:30;3;3;
72023;PMS5003;59889;50.700;5.440;2022-10-16T14:38:16;4;4;
72023;PMS5003;59889;50.700;5.440;2022-10-16T14:40:38;2;2;
72023;PMS5003;59889;50.700;5.440;2022-10-16T14:43:04;3;3;
72023;PMS5003;59889;50.700;5.440;2022-10-16T14:45:29;3;3;
72023;PMS5003;59889;50.700;5.440;2022-10-16T14:47:54;2;2;
72023;PMS5003;59889;50.700;5.440;2022-10-16T14:50:19;3;3;
72023;PMS5003;59889;50.700;5.440;2022-10-16T14:52:44;3;3;
72023;PMS5003;59889;50.700;5.440;2022-10-16T14:55:09;3;3;
72023;PMS5003;59889;50.700;5.440;2022-10-16T14:57:34;3;3;
72023;PMS5003;59889;50.700;5.440;2022-10-16T14:59:59;3;3;
72023;PMS5003;59889;50.700;5.440;2022-10-16T15:02:25;4;4;
72023;PMS5003;59889;50.700;5.440;2022-10-16T15:04:49;3;3;
72023;PMS5003;59889;50.700;5.440;2022-10-16T15:07:15;2;2;
72023;PMS5003;59889;50.700;5.440;2022-10-16T15:09:39;4;3;
72023;PMS5003;59889;50.700;5.440;2022-10-16T15:12:04;3;3;
72023;PMS5003;59889;50.700;5.440;2022-10-16T15:14:29;3;3;
72023;PMS5003;59889;50.700;5.440;2022-10-16T15:16:54;3;3;
72023;PMS5003;59889;50.700;5.440;2022-10-16T15:19:19;3;2;
72023;PMS5003;59889;50.700;5.440;2022-10-16T15:21:44;3;3;
72023;PMS5003;59889;50.700;5.440;2022-10-16T15:24:11;3;3;
72023;PMS5003;59889;50.700;5.440;2022-10-16T15:26:34;3;3;
72023;PMS5003;59889;50.700;5.440;2022-10-16T15:29:00;2;2;
72023;PMS5003;59889;50.700;5.440;2022-10-16T15:31:24;4;4;
72023;PMS5003;59889;50.700;5.440;2022-10-16T15:33:50;2;2;
72023;PMS5003;59889;50.700;5.440;2022-10-16T15:36:15;3;3;
72023;PMS5003;59889;50.700;5.440;2022-10-16T15:38:40;4;3;
72023;PMS5003;59889;50.700;5.440;2022-10-16T15:41:05;4;3;
72023;PMS5003;59889;50.700;5.440;2022-10-16T15:43:30;2;2;
72023;PMS5003;59889;50.700;5.440;2022-10-16T15:45:58;5;4;
72023;PMS5003;59889;50.700;5.440;2022-10-16T15:48:20;3;3;
72023;PMS5003;59889;50.700;5.440;2022-10-16T15:50:45;2;2;
72023;PMS5003;59889;50.700;5.440;2022-10-16T15:53:10;2;2;
72023;PMS5003;59889;50.700;5.440;2022-10-16T15:55:35;2;2;
72023;PMS5003;59889;50.700;5.440;2022-10-16T15:58:00;3;3;
72023;PMS5003;59889;50.700;5.440;2022-10-16T16:00:25;2;2;
72023;PMS5003;59889;50.700;5.440;2022-10-16T16:02:51;3;2;
72023;PMS5003;59889;50.700;5.440;2022-10-16T16:05:15;3;3;
72023;PMS5003;59889;50.700;5.440;2022-10-16T16:07:40;4;4;
72023;PMS5003;59889;50.700;5.440;2022-10-16T16:10:06;3;3;
72023;PMS5003;59889;50.700;5.440;2022-10-16T16:12:30;3;3;
72023;PMS5003;59889;50.700;5.440;2022-10-16T16:14:55;4;4;
72023;PMS5003;59889;50.700;5.440;2022-10-16T16:17:21;4;3;
72023;PMS5003;59889;50.700;5.440;2022-10-16T16:19:46;2;2;
72023;PMS5003;59889;50.700;5.440;2022-10-16T16:22:11;3;3;
72023;PMS5003;59889;50.700;5.440;2022-10-16T16:24:36;4;3;
72023;PMS5003;59889;50.700;5.440;2022-10-16T16:27:01;5;3;
72023;PMS5003;59889;50.700;5.440;2022-10-16T16:29:26;5;3;
72023;PMS5003;59889;50.700;5.440;2022-10-16T16:31:51;3;3;
72023;PMS5003;59889;50.700;5.440;2022-10-16T16:34:16;3;3;
72023;PMS5003;59889;50.700;5.440;2022-10-16T16:36:41;5;5;
72023;PMS5003;59889;50.700;5.440;2022-10-16T16:39:06;1;1;
72023;PMS5003;59889;50.700;5.440;2022-10-16T16:41:31;2;2;
72023;PMS5003;59889;50.700;5.440;2022-10-16T16:44:00;6;5;
72023;PMS5003;59889;50.700;5.440;2022-10-16T16:46:21;5;3;
72023;PMS5003;59889;50.700;5.440;2022-10-16T16:48:46;4;4;